sensor_id;sensor_type;location;lat;lon;timestamp;pressure;altitude;pressure_sealevel;temperature;humidity
43326;BME280;28920;59.862;30.636;2022-09-09T00:00:12;102462.62;;;1.44;100.00
43326;BME280;28920;59.862;30.636;2022-09-09T00:02:42;102458.25;;;1.42;100.00
43326;BME280;28920;59.862;30.636;2022-09-09T00:05:14;102454.47;;;1.69;100.00
43326;BME280;28920;59.862;30.636;2022-09-09T00:07:48;102466.06;;;1.52;100.00
43326;BME280;28920;59.862;30.636;2022-09-09T00:10:24;102472.19;;;1.55;100.00
43326;BME280;28920;59.862;30.636;2022-09-09T00:13:02;102467.81;;;1.52;100.00
43326;BME280;28920;59.862;30.636;2022-09-09T00:15:36;102465.22;;;1.49;100.00
43326;BME280;28920;59.862;30.636;2022-09-09T00:18:12;102463.47;;;1.46;100.00
43326;BME280;28920;59.862;30.636;2022-09-09T00:20:47;102469.63;;;1.47;100.00
43326;BME280;28920;59.862;30.636;2022-09-09T00:23:24;102474.84;;;1.51;100.00
43326;BME280;28920;59.862;30.636;2022-09-09T00:26:02;102472.22;;;1.51;100.00
43326;BME280;28920;59.862;30.636;2022-09-09T00:28:36;102473.06;;;1.53;100.00
43326;BME280;28920;59.862;30.636;2022-09-09T00:31:11;102480.03;;;1.58;100.00
43326;BME280;28920;59.862;30.636;2022-09-09T00:33:41;102478.25;;;1.60;100.00
43326;BME280;28920;59.862;30.636;2022-09-09T00:36:14;102484.31;;;1.68;100.00
43326;BME280;28920;59.862;30.636;2022-09-09T00:38:45;102479.94;;;1.69;100.00
43326;BME280;28920;59.862;30.636;2022-09-09T00:41:21;102479.00;;;1.76;100.00
43326;BME280;28920;59.862;30.636;2022-09-09T00:43:56;102489.41;;;1.87;100.00
43326;BME280;28920;59.862;30.636;2022-09-09T00:46:43;102477.94;;;1.94;100.00
43326;BME280;28920;59.862;30.636;2022-09-09T00:49:27;102483.16;;;1.97;100.00
43326;BME280;28920;59.862;30.636;2022-09-09T00:52:12;102484.91;;;1.98;100.00
43326;BME280;28920;59.862;30.636;2022-09-09T00:54:53;102497.16;;;2.02;100.00
43326;BME280;28920;59.862;30.636;2022-09-09T00:57:28;102482.22;;;2.03;100.00
43326;BME280;28920;59.862;30.636;2022-09-09T01:00:16;102482.16;;;2.11;100.00
43326;BME280;28920;59.862;30.636;2022-09-09T01:05:42;102485.66;;;2.13;100.00
43326;BME280;28920;59.862;30.636;2022-09-09T01:08:24;102480.34;;;2.16;100.00
43326;BME280;28920;59.862;30.636;2022-09-09T01:10:58;102472.47;;;2.13;100.00
43326;BME280;28920;59.862;30.636;2022-09-09T01:13:33;102476.00;;;2.08;100.00
43326;BME280;28920;59.862;30.636;2022-09-09T01:16:04;102481.31;;;2.07;100.00
43326;BME280;28920;59.862;30.636;2022-09-09T01:18:35;102476.84;;;2.12;100.00
43326;BME280;28920;59.862;30.636;2022-09-09T01:21:13;102476.81;;;2.15;100.00
43326;BME280;28920;59.862;30.636;2022-09-09T01:23:59;102484.66;;;2.23;100.00
43326;BME280;28920;59.862;30.636;2022-09-09T01:26:36;102478.50;;;2.22;100.00
43326;BME280;28920;59.862;30.636;2022-09-09T01:29:06;102471.31;;;2.37;100.00
43326;BME280;28920;59.862;30.636;2022-09-09T01:31:38;102471.44;;;2.26;100.00
43326;BME280;28920;59.862;30.636;2022-09-09T01:34:11;102470.50;;;2.30;100.00
43326;BME280;28920;59.862;30.636;2022-09-09T01:36:44;102475.75;;;2.30;100.00
43326;BME280;28920;59.862;30.636;2022-09-09T01:39:13;102474.84;;;2.36;100.00
43326;BME280;28920;59.862;30.636;2022-09-09T01:41:44;102483.53;;;2.43;100.00
43326;BME280;28920;59.862;30.636;2022-09-09T01:44:12;102486.12;;;2.47;100.00
43326;BME280;28920;59.862;30.636;2022-09-09T01:46:41;102487.00;;;2.46;100.00
43326;BME280;28920;59.862;30.636;2022-09-09T01:49:10;102473.78;;;2.51;100.00
43326;BME280;28920;59.862;30.636;2022-09-09T01:51:39;102479.88;;;2.53;100.00
43326;BME280;28920;59.862;30.636;2022-09-09T01:54:10;102475.47;;;2.55;100.00
43326;BME280;28920;59.862;30.636;2022-09-09T01:56:46;102482.41;;;2.61;100.00
43326;BME280;28920;59.862;30.636;2022-09-09T01:59:34;102472.69;;;2.66;100.00
43326;BME280;28920;59.862;30.636;2022-09-09T02:02:10;102480.56;;;2.68;100.00
43326;BME280;28920;59.862;30.636;2022-09-09T02:04:41;102487.56;;;2.72;100.00
43326;BME280;28920;59.862;30.636;2022-09-09T02:07:26;102476.97;;;2.75;100.00
43326;BME280;28920;59.862;30.636;2022-09-09T02:10:00;102481.44;;;2.68;100.00
43326;BME280;28920;59.862;30.636;2022-09-09T02:12:31;102481.41;;;2.70;100.00
43326;BME280;28920;59.862;30.636;2022-09-09T02:15:03;102482.28;;;2.72;100.00
43326;BME280;28920;59.862;30.636;2022-09-09T02:17:36;102464.81;;;2.63;100.00
43326;BME280;28920;59.862;30.636;2022-09-09T02:20:12;102477.81;;;2.75;100.00
43326;BME280;28920;59.862;30.636;2022-09-09T02:22:44;102487.50;;;2.76;100.00
43326;BME280;28920;59.862;30.636;2022-09-09T02:25:17;102485.66;;;2.80;100.00
43326;BME280;28920;59.862;30.636;2022-09-09T02:27:50;102487.37;;;2.84;100.00
43326;BME280;28920;59.862;30.636;2022-09-09T02:30:19;102479.47;;;2.83;100.00
43326;BME280;28920;59.862;30.636;2022-09-09T02:32:50;102483.78;;;2.88;100.00
43326;BME280;28920;59.862;30.636;2022-09-09T02:35:25;102478.50;;;2.88;100.00
43326;BME280;28920;59.862;30.636;2022-09-09T02:37:56;102472.34;;;2.89;100.00
43326;BME280;28920;59.862;30.636;2022-09-09T02:40:26;102476.72;;;2.90;100.00
43326;BME280;28920;59.862;30.636;2022-09-09T02:42:56;102471.41;;;2.94;100.00
43326;BME280;28920;59.862;30.636;2022-09-09T02:45:33;102475.75;;;2.98;100.00
43326;BME280;28920;59.862;30.636;2022-09-09T02:48:07;102473.09;;;2.98;100.00
43326;BME280;28920;59.862;30.636;2022-09-09T02:50:43;102480.09;;;3.02;100.00
43326;BME280;28920;59.862;30.636;2022-09-09T02:53:16;102468.66;;;3.00;100.00
43326;BME280;28920;59.862;30.636;2022-09-09T02:55:47;102477.47;;;3.00;100.00
43326;BME280;28920;59.862;30.636;2022-09-09T02:58:19;102477.47;;;3.00;100.00
43326;BME280;28920;59.862;30.636;2022-09-09T03:00:51;102473.09;;;2.98;100.00
43326;BME280;28920;59.862;30.636;2022-09-09T03:03:20;102471.31;;;3.00;100.00
43326;BME280;28920;59.862;30.636;2022-09-09T03:05:49;102478.34;;;3.01;100.00
43326;BME280;28920;59.862;30.636;2022-09-09T03:08:17;102475.72;;;3.01;100.00
43326;BME280;28920;59.862;30.636;2022-09-09T03:10:45;102475.69;;;3.02;100.00
43326;BME280;28920;59.862;30.636;2022-09-09T03:13:14;102471.25;;;3.04;100.00
43326;BME280;28920;59.862;30.636;2022-09-09T03:15:43;102481.72;;;3.09;100.00
43326;BME280;28920;59.862;30.636;2022-09-09T03:18:12;102476.44;;;3.09;100.00
43326;BME280;28920;59.862;30.636;2022-09-09T03:20:40;102474.69;;;3.11;100.00
43326;BME280;28920;59.862;30.636;2022-09-09T03:23:10;102469.41;;;3.10;100.00
43326;BME280;28920;59.862;30.636;2022-09-09T03:25:46;102472.88;;;3.13;100.00
43326;BME280;28920;59.862;30.636;2022-09-09T03:28:15;102479.97;;;3.11;100.00
43326;BME280;28920;59.862;30.636;2022-09-09T03:30:44;102476.41;;;3.12;100.00
43326;BME280;28920;59.862;30.636;2022-09-09T03:33:12;102473.72;;;3.14;100.00
43326;BME280;28920;59.862;30.636;2022-09-09T03:35:45;102474.50;;;3.20;100.00
43326;BME280;28920;59.862;30.636;2022-09-09T03:38:15;102475.44;;;3.18;100.00
43326;BME280;28920;59.862;30.636;2022-09-09T03:40:49;102476.22;;;3.23;100.00
43326;BME280;28920;59.862;30.636;2022-09-09T03:43:18;102480.59;;;3.24;100.00
43326;BME280;28920;59.862;30.636;2022-09-09T03:45:47;102476.22;;;3.25;100.00
43326;BME280;28920;59.862;30.636;2022-09-09T03:48:16;102481.56;;;3.22;100.00
43326;BME280;28920;59.862;30.636;2022-09-09T03:50:45;102480.59;;;3.26;100.00
43326;BME280;28920;59.862;30.636;2022-09-09T03:53:14;102480.59;;;3.27;100.00
43326;BME280;28920;59.862;30.636;2022-09-09T03:55:44;102476.16;;;3.28;100.00
43326;BME280;28920;59.862;30.636;2022-09-09T03:58:12;102484.06;;;3.28;100.00
43326;BME280;28920;59.862;30.636;2022-09-09T04:00:40;102480.53;;;3.30;100.00
43326;BME280;28920;59.862;30.636;2022-09-09T04:03:13;102471.63;;;3.38;100.00
43326;BME280;28920;59.862;30.636;2022-09-09T04:05:41;102481.28;;;3.37;100.00
43326;BME280;28920;59.862;30.636;2022-09-09T04:08:10;102478.56;;;3.42;100.00
43326;BME280;28920;59.862;30.636;2022-09-09T04:10:38;102477.66;;;3.46;100.00
43326;BME280;28920;59.862;30.636;2022-09-09T04:13:06;102474.06;;;3.48;100.00
43326;BME280;28920;59.862;30.636;2022-09-09T04:15:33;102479.19;;;3.58;100.00
43326;BME280;28920;59.862;30.636;2022-09-09T04:18:02;102481.75;;;3.62;100.00
43326;BME280;28920;59.862;30.636;2022-09-09T04:20:31;102481.59;;;3.70;100.00
43326;BME280;28920;59.862;30.636;2022-09-09T04:22:59;102476.22;;;3.75;100.00
43326;BME280;28920;59.862;30.636;2022-09-09T04:25:28;102484.03;;;3.83;100.00
43326;BME280;28920;59.862;30.636;2022-09-09T04:27:57;102478.63;;;3.89;100.00
43326;BME280;28920;59.862;30.636;2022-09-09T04:30:26;102482.06;;;3.94;100.00
43326;BME280;28920;59.862;30.636;2022-09-09T04:32:56;102481.06;;;4.00;100.00
43326;BME280;28920;59.862;30.636;2022-09-09T04:35:24;102479.97;;;4.12;100.00
43326;BME280;28920;59.862;30.636;2022-09-09T04:37:55;102486.84;;;4.19;100.00
43326;BME280;28920;59.862;30.636;2022-09-09T04:40:23;102480.63;;;4.23;100.00
43326;BME280;28920;59.862;30.636;2022-09-09T04:42:51;102475.19;;;4.29;100.00
43326;BME280;28920;59.862;30.636;2022-09-09T04:45:19;102472.38;;;4.39;100.00
43326;BME280;28920;59.862;30.636;2022-09-09T04:47:48;102473.97;;;4.46;100.00
43326;BME280;28920;59.862;30.636;2022-09-09T04:50:16;102480.00;;;4.53;100.00
43326;BME280;28920;59.862;30.636;2022-09-09T04:52:47;102478.16;;;4.58;100.00
43326;BME280;28920;59.862;30.636;2022-09-09T04:55:17;102478.00;;;4.64;100.00
43326;BME280;28920;59.862;30.636;2022-09-09T04:57:45;102480.59;;;4.66;100.00
43326;BME280;28920;59.862;30.636;2022-09-09T05:00:15;102486.78;;;4.66;100.00
43326;BME280;28920;59.862;30.636;2022-09-09T05:02:44;102484.00;;;4.71;100.00
43326;BME280;28920;59.862;30.636;2022-09-09T05:05:13;102479.53;;;4.74;100.00
43326;BME280;28920;59.862;30.636;2022-09-09T05:07:41;102489.97;;;4.81;100.00
43326;BME280;28920;59.862;30.636;2022-09-09T05:10:10;102485.50;;;4.84;100.00
43326;BME280;28920;59.862;30.636;2022-09-09T05:12:39;102493.28;;;4.91;100.00
43326;BME280;28920;59.862;30.636;2022-09-09T05:15:08;102500.31;;;4.92;100.00
43326;BME280;28920;59.862;30.636;2022-09-09T05:17:37;102500.09;;;5.01;100.00
43326;BME280;28920;59.862;30.636;2022-09-09T05:20:05;102503.38;;;5.12;100.00
43326;BME280;28920;59.862;30.636;2022-09-09T05:22:33;102500.50;;;5.22;100.00
43326;BME280;28920;59.862;30.636;2022-09-09T05:25:03;102497.41;;;5.40;100.00
43326;BME280;28920;59.862;30.636;2022-09-09T05:27:33;102505.72;;;5.61;100.00
43326;BME280;28920;59.862;30.636;2022-09-09T05:30:03;102505.28;;;5.78;100.00
43326;BME280;28920;59.862;30.636;2022-09-09T05:32:33;102493.66;;;5.84;100.00
43326;BME280;28920;59.862;30.636;2022-09-09T05:35:01;102492.41;;;5.97;100.00
43326;BME280;28920;59.862;30.636;2022-09-09T05:37:31;102494.75;;;6.10;100.00
43326;BME280;28920;59.862;30.636;2022-09-09T05:39:59;102488.28;;;6.20;100.00
43326;BME280;28920;59.862;30.636;2022-09-09T05:42:31;102486.50;;;6.52;100.00
43326;BME280;28920;59.862;30.636;2022-09-09T05:45:02;102502.41;;;7.09;100.00
43326;BME280;28920;59.862;30.636;2022-09-09T05:47:30;102496.78;;;7.47;100.00
43326;BME280;28920;59.862;30.636;2022-09-09T05:49:59;102494.41;;;7.65;100.00
43326;BME280;28920;59.862;30.636;2022-09-09T05:52:28;102498.56;;;7.74;100.00
43326;BME280;28920;59.862;30.636;2022-09-09T05:54:57;102501.66;;;7.87;100.00
43326;BME280;28920;59.862;30.636;2022-09-09T05:57:26;102501.06;;;8.04;100.00
43326;BME280;28920;59.862;30.636;2022-09-09T05:59:55;102501.44;;;8.42;100.00
43326;BME280;28920;59.862;30.636;2022-09-09T06:02:24;102493.53;;;8.65;100.00
43326;BME280;28920;59.862;30.636;2022-09-09T06:04:52;102499.62;;;8.90;100.00
43326;BME280;28920;59.862;30.636;2022-09-09T06:07:23;102512.81;;;9.16;100.00
43326;BME280;28920;59.862;30.636;2022-09-09T06:09:52;102500.63;;;9.10;100.00
43326;BME280;28920;59.862;30.636;2022-09-09T06:12:20;102503.94;;;9.38;100.00
43326;BME280;28920;59.862;30.636;2022-09-09T06:14:48;102504.97;;;9.77;100.00
43326;BME280;28920;59.862;30.636;2022-09-09T06:17:17;102510.81;;;10.06;100.00
43326;BME280;28920;59.862;30.636;2022-09-09T06:19:46;102508.06;;;10.28;100.00
43326;BME280;28920;59.862;30.636;2022-09-09T06:22:14;102499.34;;;10.64;100.00
43326;BME280;28920;59.862;30.636;2022-09-09T06:24:43;102509.84;;;10.86;100.00
43326;BME280;28920;59.862;30.636;2022-09-09T06:27:12;102502.00;;;11.03;100.00
43326;BME280;28920;59.862;30.636;2022-09-09T06:29:39;102498.50;;;11.37;100.00
43326;BME280;28920;59.862;30.636;2022-09-09T06:32:08;102512.13;;;11.68;100.00
43326;BME280;28920;59.862;30.636;2022-09-09T06:34:36;102514.84;;;12.02;100.00
43326;BME280;28920;59.862;30.636;2022-09-09T06:37:05;102511.50;;;12.32;100.00
43326;BME280;28920;59.862;30.636;2022-09-09T06:39:35;102506.72;;;12.71;100.00
43326;BME280;28920;59.862;30.636;2022-09-09T06:42:03;102514.13;;;12.49;100.00
43326;BME280;28920;59.862;30.636;2022-09-09T06:44:34;102515.88;;;12.50;99.16
43326;BME280;28920;59.862;30.636;2022-09-09T06:47:03;102514.75;;;12.71;100.00
43326;BME280;28920;59.862;30.636;2022-09-09T06:49:31;102520.72;;;12.92;97.97
43326;BME280;28920;59.862;30.636;2022-09-09T06:52:00;102521.94;;;13.02;94.98
43326;BME280;28920;59.862;30.636;2022-09-09T06:54:30;102518.97;;;13.07;98.20
43326;BME280;28920;59.862;30.636;2022-09-09T06:56:58;102507.25;;;12.93;93.80
43326;BME280;28920;59.862;30.636;2022-09-09T06:59:26;102511.19;;;13.18;94.62
43326;BME280;28920;59.862;30.636;2022-09-09T07:01:55;102508.25;;;13.23;96.65
43326;BME280;28920;59.862;30.636;2022-09-09T07:04:23;102511.34;;;13.47;94.67
43326;BME280;28920;59.862;30.636;2022-09-09T07:06:51;102517.19;;;13.38;90.38
43326;BME280;28920;59.862;30.636;2022-09-09T07:09:20;102511.53;;;13.44;94.94
43326;BME280;28920;59.862;30.636;2022-09-09T07:11:51;102515.22;;;13.72;94.31
43326;BME280;28920;59.862;30.636;2022-09-09T07:14:21;102516.03;;;13.89;93.32
43326;BME280;28920;59.862;30.636;2022-09-09T07:16:49;102515.66;;;13.95;88.00
43326;BME280;28920;59.862;30.636;2022-09-09T07:19:18;102508.88;;;14.18;91.28
43326;BME280;28920;59.862;30.636;2022-09-09T07:21:46;102517.19;;;14.57;89.58
43326;BME280;28920;59.862;30.636;2022-09-09T07:24:15;102518.13;;;14.71;85.50
43326;BME280;28920;59.862;30.636;2022-09-09T07:26:43;102523.41;;;14.58;80.47
43326;BME280;28920;59.862;30.636;2022-09-09T07:29:14;102517.56;;;14.51;82.61
43326;BME280;28920;59.862;30.636;2022-09-09T07:31:42;102518.75;;;14.76;84.16
43326;BME280;28920;59.862;30.636;2022-09-09T07:34:10;102524.81;;;15.07;80.22
43326;BME280;28920;59.862;30.636;2022-09-09T07:36:39;102525.81;;;14.63;78.12
43326;BME280;28920;59.862;30.636;2022-09-09T07:39:10;102522.78;;;14.40;77.96
43326;BME280;28920;59.862;30.636;2022-09-09T07:41:42;102525.16;;;14.44;77.77
43326;BME280;28920;59.862;30.636;2022-09-09T07:44:12;102527.38;;;14.38;75.67
43326;BME280;28920;59.862;30.636;2022-09-09T07:46:43;102542.66;;;13.77;76.92
43326;BME280;28920;59.862;30.636;2022-09-09T07:49:14;102526.50;;;13.16;76.92
43326;BME280;28920;59.862;30.636;2022-09-09T07:51:44;102525.88;;;13.11;79.81
43326;BME280;28920;59.862;30.636;2022-09-09T07:54:15;102522.38;;;13.41;80.91
43326;BME280;28920;59.862;30.636;2022-09-09T07:56:47;102523.69;;;13.81;77.51
43326;BME280;28920;59.862;30.636;2022-09-09T07:59:16;102529.47;;;14.32;79.01
43326;BME280;28920;59.862;30.636;2022-09-09T08:01:48;102535.22;;;13.97;76.85
43326;BME280;28920;59.862;30.636;2022-09-09T08:04:21;102533.06;;;13.73;79.41
43326;BME280;28920;59.862;30.636;2022-09-09T08:06:51;102534.75;;;13.60;77.79
43326;BME280;28920;59.862;30.636;2022-09-09T08:09:21;102528.37;;;13.46;77.23
43326;BME280;28920;59.862;30.636;2022-09-09T08:11:51;102536.06;;;13.36;72.23
43326;BME280;28920;59.862;30.636;2022-09-09T08:14:19;102534.97;;;13.25;73.53
43326;BME280;28920;59.862;30.636;2022-09-09T08:16:51;102529.53;;;13.10;80.46
43326;BME280;28920;59.862;30.636;2022-09-09T08:19:20;102534.19;;;12.90;74.81
43326;BME280;28920;59.862;30.636;2022-09-09T08:21:50;102532.53;;;12.72;78.02
43326;BME280;28920;59.862;30.636;2022-09-09T08:24:18;102539.19;;;12.64;79.76
43326;BME280;28920;59.862;30.636;2022-09-09T08:26:48;102536.28;;;12.69;85.79
43326;BME280;28920;59.862;30.636;2022-09-09T08:29:17;102536.53;;;12.64;87.24
43326;BME280;28920;59.862;30.636;2022-09-09T08:31:47;102538.84;;;12.71;85.50
43326;BME280;28920;59.862;30.636;2022-09-09T08:34:17;102538.31;;;12.64;87.38
43326;BME280;28920;59.862;30.636;2022-09-09T08:36:49;102535.13;;;12.57;84.67
43326;BME280;28920;59.862;30.636;2022-09-09T08:39:20;102551.38;;;12.54;86.02
43326;BME280;28920;59.862;30.636;2022-09-09T08:42:06;102542.84;;;12.63;89.03
43326;BME280;28920;59.862;30.636;2022-09-09T08:45:00;102545.59;;;12.62;86.85
43326;BME280;28920;59.862;30.636;2022-09-09T08:47:36;102547.75;;;12.55;87.46
43326;BME280;28920;59.862;30.636;2022-09-09T08:50:19;102538.56;;;12.59;87.99
43326;BME280;28920;59.862;30.636;2022-09-09T08:52:55;102539.84;;;12.52;85.82
43326;BME280;28920;59.862;30.636;2022-09-09T08:55:37;102534.34;;;12.55;86.13
43326;BME280;28920;59.862;30.636;2022-09-09T08:58:11;102538.94;;;12.53;84.93
43326;BME280;28920;59.862;30.636;2022-09-09T09:00:57;102542.22;;;12.58;86.01
43326;BME280;28920;59.862;30.636;2022-09-09T09:03:35;102541.00;;;12.80;86.26
43326;BME280;28920;59.862;30.636;2022-09-09T09:06:23;102538.87;;;13.03;83.67
43326;BME280;28920;59.862;30.636;2022-09-09T09:08:59;102539.72;;;13.03;81.74
43326;BME280;28920;59.862;30.636;2022-09-09T09:11:35;102532.97;;;13.12;83.84
43326;BME280;28920;59.862;30.636;2022-09-09T09:14:09;102537.66;;;13.08;83.80
43326;BME280;28920;59.862;30.636;2022-09-09T09:16:43;102545.97;;;13.04;85.57
43326;BME280;28920;59.862;30.636;2022-09-09T09:19:15;102539.47;;;12.92;82.83
43326;BME280;28920;59.862;30.636;2022-09-09T09:21:50;102540.06;;;12.97;83.81
43326;BME280;28920;59.862;30.636;2022-09-09T09:24:23;102542.75;;;12.81;81.95
43326;BME280;28920;59.862;30.636;2022-09-09T09:26:54;102536.59;;;12.79;81.53
43326;BME280;28920;59.862;30.636;2022-09-09T09:29:25;102540.16;;;12.79;82.73
43326;BME280;28920;59.862;30.636;2022-09-09T09:31:56;102536.44;;;12.82;80.60
43326;BME280;28920;59.862;30.636;2022-09-09T09:34:27;102531.69;;;12.87;84.07
43326;BME280;28920;59.862;30.636;2022-09-09T09:36:59;102528.56;;;12.95;84.00
43326;BME280;28920;59.862;30.636;2022-09-09T09:39:29;102525.91;;;12.95;82.03
43326;BME280;28920;59.862;30.636;2022-09-09T09:42:09;102531.25;;;13.11;81.31
43326;BME280;28920;59.862;30.636;2022-09-09T09:44:41;102530.41;;;13.11;75.87
43326;BME280;28920;59.862;30.636;2022-09-09T09:47:12;102533.66;;;13.16;77.46
43326;BME280;28920;59.862;30.636;2022-09-09T09:49:51;102527.88;;;13.24;79.99
43326;BME280;28920;59.862;30.636;2022-09-09T09:52:23;102527.78;;;13.25;80.05
43326;BME280;28920;59.862;30.636;2022-09-09T09:54:52;102529.69;;;13.23;78.83
43326;BME280;28920;59.862;30.636;2022-09-09T09:57:25;102520.34;;;13.30;78.25
43326;BME280;28920;59.862;30.636;2022-09-09T10:00:06;102527.75;;;13.41;78.89
43326;BME280;28920;59.862;30.636;2022-09-09T10:02:42;102525.84;;;13.27;77.50
43326;BME280;28920;59.862;30.636;2022-09-09T10:05:15;102525.19;;;13.24;74.44
43326;BME280;28920;59.862;30.636;2022-09-09T10:07:45;102531.06;;;13.30;76.04
43326;BME280;28920;59.862;30.636;2022-09-09T10:10:20;102525.16;;;13.40;82.09
43326;BME280;28920;59.862;30.636;2022-09-09T10:12:58;102519.88;;;13.38;80.46
43326;BME280;28920;59.862;30.636;2022-09-09T10:15:41;102516.62;;;13.49;82.79
43326;BME280;28920;59.862;30.636;2022-09-09T10:18:35;102519.41;;;13.62;79.20
43326;BME280;28920;59.862;30.636;2022-09-09T10:21:12;102517.28;;;13.53;77.71
43326;BME280;28920;59.862;30.636;2022-09-09T10:23:54;102525.03;;;13.57;76.70
43326;BME280;28920;59.862;30.636;2022-09-09T10:26:38;102519.25;;;13.65;74.84
43326;BME280;28920;59.862;30.636;2022-09-09T10:29:22;102525.09;;;13.72;73.70
43326;BME280;28920;59.862;30.636;2022-09-09T10:32:04;102516.22;;;13.86;76.50
43326;BME280;28920;59.862;30.636;2022-09-09T10:34:56;102515.38;;;14.00;77.23
43326;BME280;28920;59.862;30.636;2022-09-09T10:37:39;102524.00;;;13.90;73.56
43326;BME280;28920;59.862;30.636;2022-09-09T10:40:25;102514.91;;;13.93;72.93
43326;BME280;28920;59.862;30.636;2022-09-09T10:43:03;102517.47;;;13.80;72.90
43326;BME280;28920;59.862;30.636;2022-09-09T10:45:44;102522.56;;;13.85;71.73
43326;BME280;28920;59.862;30.636;2022-09-09T10:48:31;102497.53;;;13.84;74.10
43326;BME280;28920;59.862;30.636;2022-09-09T10:51:17;102513.75;;;13.97;73.99
43326;BME280;28920;59.862;30.636;2022-09-09T10:53:55;102516.25;;;14.15;73.53
43326;BME280;28920;59.862;30.636;2022-09-09T10:56:30;102516.06;;;14.03;72.08
43326;BME280;28920;59.862;30.636;2022-09-09T10:59:04;102522.38;;;14.02;72.10
43326;BME280;28920;59.862;30.636;2022-09-09T11:01:37;102518.44;;;13.94;71.63
43326;BME280;28920;59.862;30.636;2022-09-09T11:04:13;102517.53;;;13.78;71.16
43326;BME280;28920;59.862;30.636;2022-09-09T11:06:45;102518.09;;;13.69;75.04
43326;BME280;28920;59.862;30.636;2022-09-09T11:09:23;102511.78;;;13.70;71.29
43326;BME280;28920;59.862;30.636;2022-09-09T11:11:58;102515.75;;;13.79;70.74
43326;BME280;28920;59.862;30.636;2022-09-09T11:14:32;102514.31;;;13.88;71.71
43326;BME280;28920;59.862;30.636;2022-09-09T11:17:06;102502.47;;;14.36;73.48
43326;BME280;28920;59.862;30.636;2022-09-09T11:19:39;102500.91;;;14.75;69.92
43326;BME280;28920;59.862;30.636;2022-09-09T11:22:16;102497.47;;;15.00;70.81
43326;BME280;28920;59.862;30.636;2022-09-09T11:24:47;102511.13;;;15.25;67.04
43326;BME280;28920;59.862;30.636;2022-09-09T11:27:21;102498.91;;;15.47;68.27
43326;BME280;28920;59.862;30.636;2022-09-09T11:30:06;102504.00;;;15.77;68.30
43326;BME280;28920;59.862;30.636;2022-09-09T11:33:08;102498.00;;;15.74;68.71
43326;BME280;28920;59.862;30.636;2022-09-09T11:35:54;102497.66;;;15.65;67.93
43326;BME280;28920;59.862;30.636;2022-09-09T11:38:33;102493.59;;;15.98;67.36
43326;BME280;28920;59.862;30.636;2022-09-09T11:41:07;102494.84;;;16.32;64.92
43326;BME280;28920;59.862;30.636;2022-09-09T11:43:40;102492.66;;;16.87;64.66
43326;BME280;28920;59.862;30.636;2022-09-09T11:46:09;102491.91;;;16.61;60.14
43326;BME280;28920;59.862;30.636;2022-09-09T11:48:39;102495.63;;;16.71;60.04
43326;BME280;28920;59.862;30.636;2022-09-09T11:51:11;102493.75;;;16.60;56.32
43326;BME280;28920;59.862;30.636;2022-09-09T11:53:50;102484.41;;;16.77;58.72
43326;BME280;28920;59.862;30.636;2022-09-09T11:56:27;102488.25;;;16.86;56.96
43326;BME280;28920;59.862;30.636;2022-09-09T11:59:00;102489.97;;;16.87;56.41
43326;BME280;28920;59.862;30.636;2022-09-09T12:01:34;102480.69;;;16.91;55.96
43326;BME280;28920;59.862;30.636;2022-09-09T12:04:30;102460.19;;;17.02;59.74
43326;BME280;28920;59.862;30.636;2022-09-09T12:07:04;102481.00;;;17.24;58.54
43326;BME280;28920;59.862;30.636;2022-09-09T12:09:55;102480.03;;;17.72;56.73
43326;BME280;28920;59.862;30.636;2022-09-09T12:12:29;102472.94;;;17.35;56.27
43326;BME280;28920;59.862;30.636;2022-09-09T12:15:03;102478.13;;;17.14;53.53
43326;BME280;28920;59.862;30.636;2022-09-09T12:17:48;102468.56;;;17.46;57.01
43326;BME280;28920;59.862;30.636;2022-09-09T12:20:20;102471.13;;;17.47;53.02
43326;BME280;28920;59.862;30.636;2022-09-09T12:26:05;102469.06;;;17.62;56.39
43326;BME280;28920;59.862;30.636;2022-09-09T12:28:47;102438.88;;;17.46;54.45
43326;BME280;28920;59.862;30.636;2022-09-09T12:31:24;102454.72;;;17.50;54.49
43326;BME280;28920;59.862;30.636;2022-09-09T12:33:54;102452.22;;;17.36;54.59
43326;BME280;28920;59.862;30.636;2022-09-09T12:36:25;102456.28;;;17.06;53.46
43326;BME280;28920;59.862;30.636;2022-09-09T12:38:56;102454.84;;;16.14;54.86
43326;BME280;28920;59.862;30.636;2022-09-09T12:41:28;102437.38;;;15.55;59.09
43326;BME280;28920;59.862;30.636;2022-09-09T12:44:03;102451.97;;;15.38;60.64
43326;BME280;28920;59.862;30.636;2022-09-09T12:46:35;102451.66;;;15.02;62.43
43326;BME280;28920;59.862;30.636;2022-09-09T12:49:18;102455.03;;;14.78;65.33
43326;BME280;28920;59.862;30.636;2022-09-09T12:51:49;102452.53;;;14.60;65.93
43326;BME280;28920;59.862;30.636;2022-09-09T12:54:19;102445.66;;;14.56;65.43
43326;BME280;28920;59.862;30.636;2022-09-09T12:56:48;102447.56;;;14.54;66.54
43326;BME280;28920;59.862;30.636;2022-09-09T12:59:23;102454.63;;;14.70;66.51
43326;BME280;28920;59.862;30.636;2022-09-09T13:01:59;102453.19;;;15.06;67.15
43326;BME280;28920;59.862;30.636;2022-09-09T13:04:27;102443.81;;;14.99;64.67
43326;BME280;28920;59.862;30.636;2022-09-09T13:07:05;102436.78;;;14.83;66.82
43326;BME280;28920;59.862;30.636;2022-09-09T13:09:36;102453.97;;;14.81;66.52
43326;BME280;28920;59.862;30.636;2022-09-09T13:12:05;102439.84;;;14.63;67.26
43326;BME280;28920;59.862;30.636;2022-09-09T13:14:37;102441.25;;;14.41;66.28